createdAt,value
2022-09-02T00:01:25.473Z,1.65
2022-09-02T00:03:57.600Z,1.55
2022-09-02T00:06:25.229Z,1.63
2022-09-02T00:08:52.241Z,1.48
2022-09-02T00:11:24.476Z,1.70
2022-09-02T00:13:51.572Z,1.15
2022-09-02T00:16:18.887Z,1.50
2022-09-02T00:18:47.272Z,1.58
2022-09-02T00:21:15.081Z,1.60
2022-09-02T00:23:44.005Z,1.75
2022-09-02T00:26:12.141Z,1.42
2022-09-02T00:28:40.053Z,1.55
2022-09-02T00:31:14.361Z,1.65
2022-09-02T00:33:41.255Z,1.48
2022-09-02T00:36:08.432Z,1.25
2022-09-02T00:38:36.962Z,1.63
2022-09-02T00:41:08.058Z,1.55
2022-09-02T00:43:53.985Z,1.48
2022-09-02T00:46:24.982Z,1.40
2022-09-02T00:49:01.044Z,1.45
2022-09-02T00:51:33.230Z,1.50
2022-09-02T00:54:00.312Z,1.58
2022-09-02T00:56:30.882Z,1.50
2022-09-02T00:58:58.762Z,1.60
2022-09-02T01:01:25.770Z,1.40
2022-09-02T01:04:46.754Z,1.60
2022-09-02T01:07:13.416Z,1.60
2022-09-02T01:09:40.722Z,1.73
2022-09-02T01:12:08.773Z,1.50
2022-09-02T01:14:35.508Z,2.17
2022-09-02T01:17:03.091Z,1.50
2022-09-02T01:19:40.381Z,1.73
2022-09-02T01:22:19.794Z,1.60
2022-09-02T01:24:46.507Z,1.80
2022-09-02T01:27:19.840Z,1.55
2022-09-02T01:29:52.283Z,1.33
2022-09-02T01:32:19.120Z,1.80
2022-09-02T01:34:45.728Z,1.30
2022-09-02T01:37:12.501Z,1.40
2022-09-02T01:39:39.346Z,1.50
2022-09-02T01:42:06.376Z,1.48
2022-09-02T01:44:38.932Z,1.50
2022-09-02T01:47:05.706Z,1.38
2022-09-02T01:49:32.606Z,1.55
2022-09-02T01:52:04.038Z,1.52
2022-09-02T01:54:30.861Z,1.50
2022-09-02T01:56:57.602Z,1.80
2022-09-02T01:59:24.386Z,1.05
2022-09-02T02:01:51.265Z,2.13
2022-09-02T02:04:17.950Z,1.50
2022-09-02T02:06:46.094Z,1.70
2022-09-02T02:09:16.516Z,1.40
2022-09-02T02:11:43.636Z,1.25
2022-09-02T02:14:10.453Z,1.83
2022-09-02T02:16:37.358Z,1.50
2022-09-02T02:19:04.727Z,1.83
2022-09-02T02:21:32.165Z,1.50
2022-09-02T02:24:01.229Z,1.80
2022-09-02T02:26:29.063Z,1.40
2022-09-02T02:28:55.766Z,1.60
2022-09-02T02:31:24.523Z,1.58
2022-09-02T02:33:51.681Z,1.38
2022-09-02T02:36:19.218Z,1.50
2022-09-02T02:38:46.734Z,1.45
2022-09-02T02:41:15.474Z,1.80
2022-09-02T02:43:42.892Z,1.65
2022-09-02T02:46:09.815Z,1.45
2022-09-02T02:48:37.537Z,1.80
2022-09-02T02:51:04.970Z,1.70
2022-09-02T02:53:31.654Z,1.88
2022-09-02T02:55:59.664Z,1.70
2022-09-02T02:58:26.618Z,1.63
2022-09-02T03:00:53.260Z,1.98
2022-09-02T03:03:20.030Z,1.52
2022-09-02T03:05:48.040Z,1.52
2022-09-02T03:08:15.765Z,2.10
2022-09-02T03:10:43.142Z,1.83
2022-09-02T03:13:11.593Z,2.08
2022-09-02T03:15:39.387Z,2.00
2022-09-02T03:18:06.614Z,1.60
2022-09-02T03:20:33.608Z,1.90
2022-09-02T03:23:00.620Z,1.98
2022-09-02T03:25:34.901Z,2.13
2022-09-02T03:28:03.454Z,2.08
2022-09-02T03:30:31.898Z,1.90
2022-09-02T03:33:04.100Z,1.90
2022-09-02T03:35:32.643Z,1.60
2022-09-02T03:38:01.192Z,1.77
2022-09-02T03:40:28.598Z,2.17
2022-09-02T03:43:00.133Z,2.15
2022-09-02T03:45:27.747Z,2.38
2022-09-02T03:47:54.786Z,1.98
2022-09-02T03:50:25.937Z,2.13
2022-09-02T03:52:53.307Z,2.17
2022-09-02T03:55:20.004Z,2.50
2022-09-02T03:57:47.289Z,2.35
2022-09-02T04:00:16.081Z,1.92
2022-09-02T04:02:43.963Z,1.73
2022-09-02T04:05:16.046Z,2.00
2022-09-02T04:07:47.047Z,1.58
2022-09-02T04:10:14.493Z,1.50
2022-09-02T04:12:41.725Z,2.10
2022-09-02T04:15:10.694Z,2.15
2022-09-02T04:17:39.734Z,1.77
2022-09-02T04:20:08.730Z,1.75
2022-09-02T04:22:35.561Z,2.30
2022-09-02T04:25:04.272Z,2.15
2022-09-02T04:27:30.935Z,2.00
2022-09-02T04:29:57.676Z,1.60
2022-09-02T04:32:26.473Z,1.95
2022-09-02T04:34:53.519Z,1.83
2022-09-02T04:37:20.241Z,1.85
2022-09-02T04:39:46.876Z,2.17
2022-09-02T04:42:14.060Z,1.58
2022-09-02T04:44:40.753Z,2.15
2022-09-02T04:47:07.518Z,2.25
2022-09-02T04:49:34.492Z,1.85
2022-09-02T04:52:01.152Z,2.10
2022-09-02T04:54:27.961Z,2.15
2022-09-02T04:56:54.602Z,2.33
2022-09-02T04:59:21.536Z,2.03
2022-09-02T05:01:50.136Z,2.33
2022-09-02T05:04:17.101Z,1.73
2022-09-02T05:06:44.676Z,2.10
2022-09-02T05:09:11.571Z,1.77
2022-09-02T05:11:38.896Z,1.63
2022-09-02T05:14:07.051Z,1.60
2022-09-02T05:16:37.258Z,1.63
2022-09-02T05:19:06.005Z,1.88
2022-09-02T05:21:33.394Z,2.00
2022-09-02T05:24:01.024Z,1.63
2022-09-02T05:26:27.905Z,1.88
2022-09-02T05:28:54.571Z,1.80
2022-09-02T05:31:21.870Z,1.85
2022-09-02T05:33:48.998Z,1.60
2022-09-02T05:36:19.571Z,2.00
2022-09-02T05:38:46.730Z,2.05
2022-09-02T05:41:19.668Z,2.00
2022-09-02T05:43:48.554Z,2.03
2022-09-02T05:46:17.793Z,1.70
2022-09-02T05:49:04.524Z,1.90
2022-09-02T05:51:52.911Z,1.90
2022-09-02T05:54:31.555Z,1.67
2022-09-02T05:57:04.773Z,1.50
2022-09-02T05:59:36.884Z,1.80
2022-09-02T06:02:03.645Z,2.00
2022-09-02T06:04:31.114Z,2.00
2022-09-02T06:06:58.062Z,2.28
2022-09-02T06:09:25.206Z,1.92
2022-09-02T06:11:52.420Z,2.10
2022-09-02T06:14:21.995Z,2.00
2022-09-02T06:16:50.736Z,2.00
2022-09-02T06:19:20.496Z,1.90
2022-09-02T06:21:48.759Z,1.70
2022-09-02T06:24:15.538Z,2.22
2022-09-02T06:26:42.681Z,1.90
2022-09-02T06:29:10.543Z,1.77
2022-09-02T06:31:40.106Z,1.70
2022-09-02T06:34:06.970Z,2.33
2022-09-02T06:36:33.653Z,2.97
2022-09-02T06:39:01.081Z,2.17
2022-09-02T06:41:31.504Z,2.30
2022-09-02T06:44:01.080Z,2.08
2022-09-02T06:46:36.529Z,2.10
2022-09-02T06:49:05.223Z,2.17
2022-09-02T06:51:38.040Z,2.40
2022-09-02T06:54:07.048Z,2.13
2022-09-02T06:56:34.689Z,2.13
2022-09-02T06:59:02.758Z,2.65
2022-09-02T07:01:31.894Z,2.03
2022-09-02T07:04:17.487Z,2.05
2022-09-02T07:06:49.028Z,2.22
2022-09-02T07:09:19.442Z,2.28
2022-09-02T07:11:48.095Z,2.10
2022-09-02T07:14:19.616Z,2.05
2022-09-02T07:16:52.321Z,2.10
2022-09-02T07:19:20.920Z,2.25
2022-09-02T07:21:49.446Z,1.90
2022-09-02T07:24:16.484Z,2.75
2022-09-02T07:26:43.958Z,2.40
2022-09-02T07:29:11.332Z,2.50
2022-09-02T07:31:40.738Z,2.28
2022-09-02T07:34:08.358Z,2.10
2022-09-02T07:36:36.550Z,2.28
2022-09-02T07:39:06.157Z,2.38
2022-09-02T07:41:33.172Z,2.20
2022-09-02T07:43:59.991Z,2.08
2022-09-02T07:46:29.443Z,2.47
2022-09-02T07:48:56.349Z,2.40
2022-09-02T07:51:23.071Z,2.13
2022-09-02T07:53:51.466Z,2.00
2022-09-02T07:56:18.462Z,2.42
2022-09-02T07:58:45.926Z,1.90
2022-09-02T08:01:13.781Z,2.00
2022-09-02T08:03:44.277Z,1.98
2022-09-02T08:06:12.740Z,2.00
2022-09-02T08:08:40.453Z,2.40
2022-09-02T08:11:08.236Z,2.33
2022-09-02T08:13:37.109Z,1.92
2022-09-02T08:16:05.319Z,2.15
2022-09-02T08:18:32.546Z,2.10
2022-09-02T08:20:59.216Z,2.88
2022-09-02T08:23:36.819Z,2.25
2022-09-02T08:26:05.673Z,1.98
2022-09-02T08:28:33.008Z,1.95
2022-09-02T08:30:59.732Z,1.95
2022-09-02T08:33:26.624Z,1.67
2022-09-02T08:35:53.392Z,1.80
2022-09-02T08:38:22.073Z,1.73
2022-09-02T08:40:50.982Z,1.75
2022-09-02T08:43:32.327Z,1.90
2022-09-02T08:46:05.045Z,1.85
2022-09-02T08:48:40.666Z,1.42
2022-09-02T08:51:37.257Z,1.60
2022-09-02T08:54:26.142Z,1.73
2022-09-02T08:56:52.995Z,1.63
2022-09-02T08:59:23.576Z,1.55
2022-09-02T09:02:26.601Z,1.80
2022-09-02T09:05:06.776Z,1.73
2022-09-02T09:07:44.559Z,1.50
2022-09-02T09:10:22.897Z,1.90
2022-09-02T09:13:02.643Z,1.42
2022-09-02T09:15:50.771Z,1.70
2022-09-02T09:18:24.941Z,1.45
2022-09-02T09:20:51.617Z,1.17
2022-09-02T09:23:34.441Z,1.60
2022-09-02T09:26:13.149Z,1.50
2022-09-02T09:28:44.842Z,1.77
2022-09-02T09:31:14.921Z,1.55
2022-09-02T09:36:41.573Z,1.52
2022-09-02T09:39:31.085Z,1.50
2022-09-02T09:42:03.742Z,1.70
2022-09-02T09:44:37.398Z,1.80
2022-09-02T09:47:11.768Z,1.33
2022-09-02T09:49:41.536Z,1.45
2022-09-02T09:52:08.224Z,1.30
2022-09-02T09:54:34.859Z,1.38
2022-09-02T09:57:21.612Z,1.20
2022-09-02T09:59:58.116Z,1.02
2022-09-02T10:02:26.631Z,1.52
2022-09-02T10:04:55.694Z,1.30
2022-09-02T10:07:38.277Z,1.23
2022-09-02T10:10:17.602Z,1.30
2022-09-02T10:12:45.426Z,1.40
2022-09-02T10:15:12.673Z,1.35
2022-09-02T10:17:55.945Z,1.00
2022-09-02T10:20:48.477Z,1.63
2022-09-02T10:23:40.120Z,1.08
2022-09-02T10:29:08.886Z,1.05
2022-09-02T10:31:58.836Z,1.20
2022-09-02T10:34:41.350Z,1.17
2022-09-02T10:37:18.963Z,1.10
2022-09-02T10:39:45.526Z,1.17
2022-09-02T10:42:24.468Z,1.30
2022-09-02T10:45:09.628Z,1.30
2022-09-02T10:47:38.512Z,1.13
2022-09-02T10:50:30.920Z,1.20
2022-09-02T10:53:25.107Z,1.30
2022-09-02T10:56:01.885Z,1.20
2022-09-02T10:59:03.250Z,1.10
2022-09-02T11:01:35.722Z,1.02
2022-09-02T11:04:09.930Z,1.08
2022-09-02T11:07:00.998Z,1.17
2022-09-02T11:09:44.068Z,1.30
2022-09-02T11:12:28.284Z,1.00
2022-09-02T11:15:18.228Z,1.00
2022-09-02T11:18:18.327Z,1.20
2022-09-02T11:23:49.607Z,0.95
2022-09-02T11:26:24.475Z,1.10
2022-09-02T11:29:01.040Z,1.35
2022-09-02T11:31:38.906Z,1.20
2022-09-02T11:34:36.865Z,1.33
2022-09-02T11:37:10.734Z,0.95
2022-09-02T11:39:59.225Z,1.20
2022-09-02T11:42:55.032Z,1.23
2022-09-02T11:45:24.825Z,1.20
2022-09-02T11:48:24.031Z,1.30
2022-09-02T11:51:25.797Z,1.10
2022-09-02T11:53:54.922Z,1.25
2022-09-02T11:56:28.263Z,1.10
2022-09-02T11:58:54.970Z,1.35
2022-09-02T12:01:25.922Z,1.05
2022-09-02T12:04:48.402Z,1.10
2022-09-02T12:07:08.716Z,1.38
2022-09-02T12:09:49.483Z,1.00
2022-09-02T12:12:39.533Z,1.05
2022-09-02T12:15:06.555Z,1.20
2022-09-02T12:17:40.047Z,1.13
2022-09-02T12:20:10.443Z,1.13
2022-09-02T12:22:39.673Z,1.00
2022-09-02T12:25:26.918Z,1.13
2022-09-02T12:28:26.599Z,1.17
2022-09-02T12:31:01.551Z,1.10
2022-09-02T12:33:33.201Z,1.08
2022-09-02T12:36:01.052Z,1.30
2022-09-02T12:38:47.524Z,1.02
2022-09-02T12:41:17.842Z,1.00
2022-09-02T12:46:28.835Z,1.20
2022-09-02T12:49:14.234Z,1.30
2022-09-02T12:52:01.507Z,1.50
2022-09-02T12:54:40.293Z,1.10
2022-09-02T12:57:08.766Z,1.02
2022-09-02T12:59:40.951Z,1.00
2022-09-02T13:02:28.058Z,1.00
2022-09-02T13:05:15.132Z,0.77
2022-09-02T13:08:07.806Z,1.20
2022-09-02T13:10:46.394Z,1.10
2022-09-02T13:13:24.536Z,1.00
2022-09-02T13:16:15.429Z,0.77
2022-09-02T13:19:30.217Z,0.80
2022-09-02T13:22:08.933Z,0.70
2022-09-02T13:25:08.772Z,1.02
2022-09-02T13:27:57.584Z,0.82
2022-09-02T13:30:50.739Z,0.80
2022-09-02T13:33:17.506Z,0.93
2022-09-02T13:35:44.458Z,0.90
2022-09-02T13:38:13.093Z,0.90
2022-09-02T13:40:40.782Z,0.65
2022-09-02T13:43:13.556Z,0.90
2022-09-02T13:45:40.888Z,0.70
2022-09-02T13:48:19.301Z,0.90
2022-09-02T13:50:48.562Z,0.70
2022-09-02T13:53:49.203Z,0.87
2022-09-02T13:56:30.997Z,0.82
2022-09-02T13:58:57.952Z,0.77
2022-09-02T14:01:37.048Z,0.70
2022-09-02T14:04:11.285Z,1.10
2022-09-02T14:06:42.203Z,0.80
2022-09-02T14:09:19.401Z,0.82
2022-09-02T14:11:47.997Z,0.80
2022-09-02T14:14:16.382Z,0.90
2022-09-02T14:16:43.132Z,0.63
2022-09-02T14:19:26.530Z,1.00
2022-09-02T14:21:58.601Z,1.10
2022-09-02T14:24:27.976Z,1.00
2022-09-02T14:26:56.868Z,1.00
2022-09-02T14:29:25.185Z,0.95
2022-09-02T14:32:29.185Z,1.10
2022-09-02T14:35:17.543Z,0.82
2022-09-02T14:37:49.816Z,0.98
2022-09-02T14:40:17.620Z,0.80
2022-09-02T14:42:56.811Z,1.00
2022-09-02T14:45:30.203Z,0.80
2022-09-02T14:48:00.310Z,0.90
2022-09-02T14:50:32.537Z,0.98
2022-09-02T14:53:05.684Z,0.50
2022-09-02T14:55:52.684Z,1.05
2022-09-02T14:58:24.724Z,0.90
2022-09-02T15:01:00.084Z,1.00
2022-09-02T15:03:28.433Z,1.02
2022-09-02T15:05:55.386Z,0.80
2022-09-02T15:08:22.549Z,0.60
2022-09-02T15:10:50.340Z,0.82
2022-09-02T15:13:25.886Z,0.90
2022-09-02T15:15:55.365Z,0.75
2022-09-02T15:18:23.334Z,0.75
2022-09-02T15:20:50.057Z,0.70
2022-09-02T15:23:17.067Z,0.70
2022-09-02T15:25:55.860Z,1.10
2022-09-02T15:28:22.620Z,1.00
2022-09-02T15:30:49.306Z,0.90
2022-09-02T15:33:17.385Z,0.90
2022-09-02T15:35:51.708Z,0.63
2022-09-02T15:38:18.347Z,0.85
2022-09-02T15:40:45.341Z,0.90
2022-09-02T15:43:12.494Z,0.57
2022-09-02T15:45:45.982Z,0.90
2022-09-02T15:48:12.748Z,0.70
2022-09-02T15:50:39.473Z,0.50
2022-09-02T15:53:06.214Z,0.50
2022-09-02T15:55:33.643Z,0.90
2022-09-02T15:58:00.832Z,0.80
2022-09-02T16:00:28.678Z,0.63
2022-09-02T16:02:57.041Z,0.80
2022-09-02T16:05:24.236Z,0.88
2022-09-02T16:07:52.118Z,0.80
2022-09-02T16:10:18.740Z,0.98
2022-09-02T16:12:45.613Z,1.10
2022-09-02T16:15:12.298Z,0.70
2022-09-02T16:17:38.920Z,1.25
2022-09-02T16:20:06.243Z,0.85
2022-09-02T16:22:33.042Z,0.90
2022-09-02T16:25:01.718Z,0.73
2022-09-02T16:27:47.218Z,0.90
2022-09-02T16:30:13.904Z,0.80
2022-09-02T16:32:41.052Z,1.00
2022-09-02T16:35:08.501Z,0.80
2022-09-02T16:37:35.150Z,0.80
2022-09-02T16:40:03.364Z,0.90
2022-09-02T16:42:30.390Z,0.88
2022-09-02T16:44:58.712Z,0.80
2022-09-02T16:47:25.456Z,0.93
2022-09-02T16:49:52.153Z,0.80
2022-09-02T16:52:18.805Z,1.10
2022-09-02T16:54:45.668Z,0.93
2022-09-02T16:57:12.439Z,1.10
2022-09-02T16:59:39.061Z,0.88
2022-09-02T17:02:05.909Z,1.00
2022-09-02T17:04:32.569Z,0.70
2022-09-02T17:07:00.121Z,0.90
2022-09-02T17:09:26.822Z,0.70
2022-09-02T17:11:53.789Z,0.75
2022-09-02T17:14:21.747Z,0.98
2022-09-02T17:16:50.351Z,1.13
2022-09-02T17:19:21.606Z,1.00
2022-09-02T17:21:52.108Z,1.13
2022-09-02T17:24:23.663Z,1.10
2022-09-02T17:26:52.470Z,1.17
2022-09-02T17:29:47.518Z,1.13
2022-09-02T17:32:08.330Z,1.10
2022-09-02T17:34:34.981Z,1.10
2022-09-02T17:37:01.764Z,1.25
2022-09-02T17:39:28.705Z,1.20
2022-09-02T17:41:57.363Z,1.23
2022-09-02T17:44:27.365Z,1.40
2022-09-02T17:46:57.942Z,1.10
2022-09-02T17:49:24.563Z,0.95
2022-09-02T17:51:51.464Z,1.02
2022-09-02T17:54:19.244Z,1.33
2022-09-02T17:57:10.074Z,1.10
2022-09-02T17:59:59.106Z,2.10
2022-09-02T18:02:42.906Z,2.80
2022-09-02T18:05:36.103Z,2.08
2022-09-02T18:08:28.326Z,1.70
2022-09-02T18:10:58.281Z,1.42
2022-09-02T18:13:39.622Z,1.40
2022-09-02T18:16:25.830Z,1.95
2022-09-02T18:19:22.821Z,2.33
2022-09-02T18:22:08.570Z,2.72
2022-09-02T18:24:49.487Z,2.35
2022-09-02T18:27:44.059Z,2.53
2022-09-02T18:30:26.096Z,2.58
2022-09-02T18:33:12.991Z,2.80
2022-09-02T18:35:48.627Z,2.78
2022-09-02T18:38:51.801Z,2.83
2022-09-02T18:41:55.965Z,3.10
2022-09-02T18:44:52.894Z,2.55
2022-09-02T18:47:24.266Z,2.75
2022-09-02T18:49:57.794Z,2.53
2022-09-02T18:52:28.331Z,2.00
2022-09-02T18:55:12.073Z,1.77
2022-09-02T18:58:11.801Z,2.13
2022-09-02T19:00:46.277Z,1.65
2022-09-02T19:03:12.973Z,1.63
2022-09-02T19:05:39.639Z,1.90
2022-09-02T19:08:32.962Z,1.90
2022-09-02T19:11:01.775Z,1.50
2022-09-02T19:13:30.198Z,2.03
2022-09-02T19:16:02.532Z,1.70
2022-09-02T19:18:31.460Z,1.63
2022-09-02T19:20:58.672Z,1.63
2022-09-02T19:23:26.964Z,1.85
2022-09-02T19:25:53.806Z,1.77
2022-09-02T19:28:21.760Z,1.83
2022-09-02T19:30:57.686Z,1.67
2022-09-02T19:33:24.537Z,1.55
2022-09-02T19:35:51.286Z,1.95
2022-09-02T19:38:17.911Z,1.90
2022-09-02T19:40:49.488Z,1.95
2022-09-02T19:43:16.779Z,1.65
2022-09-02T19:45:44.645Z,1.83
2022-09-02T19:48:11.628Z,1.92
2022-09-02T19:50:43.951Z,1.95
2022-09-02T19:53:16.024Z,2.25
2022-09-02T19:55:42.933Z,2.30
2022-09-02T19:58:09.723Z,2.47
2022-09-02T20:00:36.494Z,2.10
2022-09-02T20:03:03.507Z,2.10
2022-09-02T20:05:32.092Z,2.22
2022-09-02T20:07:58.776Z,1.95
2022-09-02T20:10:28.023Z,1.95
2022-09-02T20:12:57.311Z,2.63
2022-09-02T20:15:24.046Z,1.92
2022-09-02T20:17:50.665Z,2.20
2022-09-02T20:20:22.585Z,2.13
2022-09-02T20:22:55.177Z,2.20
2022-09-02T20:25:32.568Z,2.15
2022-09-02T20:28:19.413Z,2.13
2022-09-02T20:30:55.205Z,2.08
2022-09-02T20:33:22.384Z,1.95
2022-09-02T20:36:05.582Z,2.22
2022-09-02T20:38:55.918Z,2.60
2022-09-02T20:44:56.438Z,2.67
2022-09-02T20:47:52.831Z,2.30
2022-09-02T20:50:34.590Z,2.20
2022-09-02T20:53:39.145Z,2.38
2022-09-02T20:56:28.958Z,2.10
2022-09-02T20:59:11.883Z,1.90
2022-09-02T21:01:41.071Z,2.38
2022-09-02T21:04:45.332Z,2.15
2022-09-02T21:07:17.936Z,2.30
2022-09-02T21:10:14.712Z,1.95
2022-09-02T21:12:48.145Z,1.70
2022-09-02T21:15:30.207Z,1.92
2022-09-02T21:18:30.088Z,1.75
2022-09-02T21:21:04.581Z,1.95
2022-09-02T21:23:52.139Z,1.80
2022-09-02T21:26:36.115Z,1.98
2022-09-02T21:29:31.582Z,1.92
2022-09-02T21:32:33.839Z,1.60
2022-09-02T21:35:10.470Z,1.65
2022-09-02T21:37:40.038Z,1.67
2022-09-02T21:40:10.751Z,1.63
2022-09-02T21:43:01.921Z,1.65
2022-09-02T21:45:53.089Z,1.63
2022-09-02T21:48:38.620Z,1.55
2022-09-02T21:51:14.401Z,1.50
2022-09-02T21:54:02.585Z,1.65
2022-09-02T21:56:36.522Z,1.60
2022-09-02T21:59:22.026Z,1.50
2022-09-02T22:02:09.483Z,1.58
2022-09-02T22:05:00.411Z,1.50
2022-09-02T22:07:49.177Z,1.30
2022-09-02T22:10:39.111Z,1.55
2022-09-02T22:13:06.517Z,1.75
2022-09-02T22:15:59.487Z,1.60
2022-09-02T22:18:55.347Z,1.67
2022-09-02T22:21:48.171Z,1.55
2022-09-02T22:24:40.484Z,1.40
2022-09-02T22:27:22.375Z,1.33
2022-09-02T22:29:57.812Z,1.00
2022-09-02T22:32:28.573Z,1.10
2022-09-02T22:35:34.176Z,1.45
2022-09-02T22:38:34.742Z,1.50
2022-09-02T22:41:30.598Z,1.45
2022-09-02T22:44:06.297Z,1.25
2022-09-02T22:47:14.117Z,1.60
2022-09-02T22:50:12.468Z,1.30
2022-09-02T22:52:54.977Z,1.40
2022-09-02T22:55:39.318Z,1.52
2022-09-02T22:58:33.227Z,1.17
2022-09-02T23:01:11.176Z,1.38
2022-09-02T23:04:05.081Z,1.23
2022-09-02T23:06:32.885Z,1.30
2022-09-02T23:09:08.738Z,1.50
2022-09-02T23:11:47.041Z,1.20
2022-09-02T23:14:44.544Z,1.00
2022-09-02T23:17:23.641Z,1.48
2022-09-02T23:19:56.336Z,1.25
2022-09-02T23:22:43.462Z,1.30
2022-09-02T23:25:22.355Z,1.50
2022-09-02T23:28:19.073Z,1.42
2022-09-02T23:31:04.557Z,1.30
2022-09-02T23:34:13.684Z,1.40
2022-09-02T23:36:57.783Z,1.55
2022-09-02T23:39:49.317Z,1.90
2022-09-02T23:42:16.428Z,1.60
2022-09-02T23:44:43.374Z,2.38
2022-09-02T23:47:27.306Z,2.15
2022-09-02T23:50:30.482Z,2.40
2022-09-02T23:53:09.866Z,2.13
2022-09-02T23:55:58.180Z,2.67
2022-09-02T23:58:36.992Z,2.65
